Decoded Metar for KMBL (MANISTEE in MI, USA) (IATA:MBL) | Meteo·Mobile Aviation Weather
aviador You're here:

KMBL Decoded Metar

MANISTEE in MI, USA
Report Time2020-02-22 20:56:00
UTC Time2020-02-22 21:49:59
Flight Rules vfr VFR
Wind210° at 13 kt
W.Decomp.*RWY 18: 10.5 kt HW 7.6 kt RCW
RWY 27: 7.6 kt HW 10.5 kt LCW
Visibility9999 m
Phenomena:N/A
Clouds:N/A
Expected CloudBase > 2,400 ft AGL from Temp-Dew spread
CeilingNone
Temp04°C (ISA -10)
Dew Point-2°C (65% RH)
AAT-2.9°C
QNH1017 hPa
Density Alt-623 ft
Elevation620 ft
Report Wrong Elevation
Raw Report
KMBL 222056Z AUTO 21013KT 10SM CLR 04/M02 A3004 RMK AO2 SLP179
T00391022 56015=

Extra information for KMBL:More info

Metar Taf Metar & Taf Last 4 Metars F.Rules Stats Wind Profile Meteogram Temp Stats Airport Information Weather charts Add Link Nearby VenuesMetar ALERT Operation Metar Decoded Social comments

AIRNAV info for KMBL